createdAt,value
2019-01-15T00:00:17.255Z,1003.52
2019-01-15T00:01:17.267Z,1003.6
2019-01-15T00:02:17.279Z,1003.52
2019-01-15T00:03:17.294Z,1003.55
2019-01-15T00:04:17.304Z,1003.58
2019-01-15T00:05:17.315Z,1003.58
2019-01-15T00:06:17.327Z,1003.66
2019-01-15T00:07:17.343Z,1003.61
2019-01-15T00:08:17.351Z,1003.65
2019-01-15T00:09:17.363Z,1003.66
2019-01-15T00:10:17.375Z,1003.59
2019-01-15T00:11:17.387Z,1003.66
2019-01-15T00:13:17.412Z,1003.58
2019-01-15T00:14:17.424Z,1003.63
2019-01-15T00:15:17.436Z,1003.62
2019-01-15T00:16:17.448Z,1003.56
2019-01-15T00:17:17.460Z,1003.57
2019-01-15T00:18:17.473Z,1003.58
2019-01-15T00:19:17.484Z,1003.64
2019-01-15T00:20:17.547Z,1003.7
2019-01-15T00:21:17.509Z,1003.73
2019-01-15T00:22:17.522Z,1003.75
2019-01-15T00:23:17.533Z,1003.67
2019-01-15T00:24:17.546Z,1003.58
2019-01-15T00:25:17.559Z,1003.62
2019-01-15T00:26:17.570Z,1003.62
2019-01-15T00:27:17.584Z,1003.64
2019-01-15T00:29:17.657Z,1003.59
2019-01-15T00:30:17.619Z,1003.78
2019-01-15T00:31:17.632Z,1003.66
2019-01-15T00:32:17.644Z,1003.68
2019-01-15T00:33:17.655Z,1003.67
2019-01-15T00:34:17.668Z,1003.67
2019-01-15T00:35:17.680Z,1003.66
2019-01-15T00:36:17.693Z,1003.65
2019-01-15T00:37:17.704Z,1003.78
2019-01-15T00:38:17.717Z,1003.76
2019-01-15T00:39:17.729Z,1003.65
2019-01-15T00:40:17.742Z,1003.73
2019-01-15T00:41:17.753Z,1003.79
2019-01-15T00:42:17.766Z,1003.71
2019-01-15T00:43:17.778Z,1003.77
2019-01-15T00:45:17.803Z,1003.76
2019-01-15T00:46:17.816Z,1003.84
2019-01-15T00:47:17.828Z,1003.77
2019-01-15T00:48:17.839Z,1003.66
2019-01-15T00:49:17.852Z,1003.65
2019-01-15T00:50:17.864Z,1003.68
2019-01-15T00:51:17.877Z,1003.75
2019-01-15T00:52:17.890Z,1003.8
2019-01-15T00:53:17.901Z,1003.79
2019-01-15T00:54:17.913Z,1003.75
2019-01-15T00:55:17.925Z,1003.77
2019-01-15T00:56:17.939Z,1003.75
2019-01-15T00:57:17.949Z,1003.77
2019-01-15T00:58:17.962Z,1003.69
2019-01-15T00:59:17.974Z,1003.59
2019-01-15T01:01:17.998Z,1003.76
2019-01-15T01:02:18.011Z,1003.81
2019-01-15T01:03:18.022Z,1003.84
2019-01-15T01:04:18.035Z,1003.8
2019-01-15T01:05:18.098Z,1003.81
2019-01-15T01:06:18.061Z,1003.77
2019-01-15T01:07:18.071Z,1003.88
2019-01-15T01:08:18.084Z,1003.88
2019-01-15T01:09:18.097Z,1003.76
2019-01-15T01:10:18.108Z,1003.76
2019-01-15T01:11:18.120Z,1003.81
2019-01-15T01:12:22.116Z,1003.81
2019-01-15T01:13:18.148Z,1003.89
2019-01-15T01:14:18.158Z,1003.87
2019-01-15T01:16:18.183Z,1003.95
2019-01-15T01:17:18.195Z,1003.85
2019-01-15T01:18:18.207Z,1003.86
2019-01-15T01:19:18.220Z,1003.82
2019-01-15T01:20:18.232Z,1003.91
2019-01-15T01:21:18.244Z,1003.99
2019-01-15T01:22:18.256Z,1003.94
2019-01-15T01:23:18.269Z,1003.88
2019-01-15T01:24:18.280Z,1003.95
2019-01-15T01:25:18.292Z,1003.98
2019-01-15T01:26:18.305Z,1004
2019-01-15T01:27:18.317Z,1003.97
2019-01-15T01:28:18.328Z,1003.99
2019-01-15T01:29:18.344Z,1003.96
2019-01-15T01:30:18.353Z,1003.99
2019-01-15T01:31:18.367Z,1004.03
2019-01-15T01:32:18.378Z,1003.98
2019-01-15T01:33:18.392Z,1004.09
2019-01-15T01:34:18.405Z,1004.09
2019-01-15T01:35:18.414Z,1004.08
2019-01-15T01:36:18.427Z,1004.05
2019-01-15T01:37:18.439Z,1004.05
2019-01-15T01:38:18.452Z,1004.25
2019-01-15T01:39:18.463Z,1004.11
2019-01-15T01:40:18.476Z,1004.12
2019-01-15T01:41:18.489Z,1004.22
2019-01-15T01:42:18.500Z,1004.15
2019-01-15T01:43:18.512Z,1004.2
2019-01-15T01:44:18.524Z,1004.21
2019-01-15T01:45:18.537Z,1004.25
2019-01-15T01:46:18.550Z,1004.28
2019-01-15T01:48:18.574Z,1004.31
2019-01-15T01:49:18.586Z,1004.4
2019-01-15T01:50:18.748Z,1004.41
2019-01-15T01:51:18.610Z,1004.17
2019-01-15T01:52:18.623Z,1004.3
2019-01-15T01:53:18.636Z,1004.29
2019-01-15T01:54:18.647Z,1004.41
2019-01-15T01:55:18.660Z,1004.38
2019-01-15T01:56:18.673Z,1004.45
2019-01-15T01:57:18.684Z,1004.41
2019-01-15T01:58:18.696Z,1004.35
2019-01-15T01:59:18.709Z,1004.46
2019-01-15T02:00:18.721Z,1004.45
2019-01-15T02:01:18.733Z,1004.47
2019-01-15T02:02:18.746Z,1004.43
2019-01-15T02:04:18.770Z,1004.47
2019-01-15T02:05:18.870Z,1004.48
2019-01-15T02:06:18.798Z,1004.49
2019-01-15T02:07:18.807Z,1004.52
2019-01-15T02:08:18.818Z,1004.56
2019-01-15T02:09:18.831Z,1004.63
2019-01-15T02:10:18.844Z,1004.54
2019-01-15T02:11:18.857Z,1004.58
2019-01-15T02:12:18.868Z,1004.61
2019-01-15T02:13:18.880Z,1004.6
2019-01-15T02:14:18.893Z,1004.49
2019-01-15T02:15:18.905Z,1004.63
2019-01-15T02:16:18.917Z,1004.59
2019-01-15T02:17:18.929Z,1004.58
2019-01-15T02:18:18.942Z,1004.58
2019-01-15T02:20:18.966Z,1004.61
2019-01-15T02:21:18.979Z,1004.57
2019-01-15T02:22:18.991Z,1004.55
2019-01-15T02:23:19.002Z,1004.59
2019-01-15T02:24:19.015Z,1004.58
2019-01-15T02:25:19.027Z,1004.59
2019-01-15T02:26:19.041Z,1004.6
2019-01-15T02:27:19.052Z,1004.57
2019-01-15T02:28:19.065Z,1004.59
2019-01-15T02:29:19.077Z,1004.59
2019-01-15T02:30:19.143Z,1004.69
2019-01-15T02:31:19.102Z,1004.65
2019-01-15T02:32:19.114Z,1004.62
2019-01-15T02:33:19.177Z,1004.66
2019-01-15T02:34:19.141Z,1004.67
2019-01-15T02:36:19.164Z,1004.6
2019-01-15T02:37:19.176Z,1004.54
2019-01-15T02:38:19.188Z,1004.66
2019-01-15T02:39:19.200Z,1004.65
2019-01-15T02:40:19.215Z,1004.73
2019-01-15T02:41:19.225Z,1004.76
2019-01-15T02:42:19.238Z,1004.71
2019-01-15T02:43:19.250Z,1004.73
2019-01-15T02:44:19.263Z,1004.71
2019-01-15T02:45:19.274Z,1004.76
2019-01-15T02:46:19.287Z,1004.81
2019-01-15T02:47:19.302Z,1004.84
2019-01-15T02:48:19.314Z,1004.71
2019-01-15T02:49:19.325Z,1004.88
2019-01-15T02:51:19.352Z,1004.86
2019-01-15T02:52:19.363Z,1004.94
2019-01-15T02:53:19.376Z,1004.87
2019-01-15T02:54:19.388Z,1004.83
2019-01-15T02:55:19.401Z,1004.83
2019-01-15T02:56:19.413Z,1004.88
2019-01-15T02:57:19.478Z,1004.81
2019-01-15T02:58:19.443Z,1004.79
2019-01-15T02:59:19.450Z,1004.77
2019-01-15T03:00:19.463Z,1004.78
2019-01-15T03:01:19.476Z,1004.77
2019-01-15T03:02:19.489Z,1004.89
2019-01-15T03:03:19.503Z,1004.87
2019-01-15T03:04:19.515Z,1004.78
2019-01-15T03:05:19.528Z,1004.84
2019-01-15T03:06:19.539Z,1004.73
2019-01-15T03:07:19.551Z,1004.87
2019-01-15T03:08:19.564Z,1004.91
2019-01-15T03:09:19.577Z,1004.89
2019-01-15T03:10:19.590Z,1004.94
2019-01-15T03:11:19.603Z,1004.85
2019-01-15T03:12:19.615Z,1004.92
2019-01-15T03:13:19.627Z,1004.83
2019-01-15T03:14:19.640Z,1004.85
2019-01-15T03:15:19.652Z,1004.77
2019-01-15T03:16:19.667Z,1004.73
2019-01-15T03:17:19.728Z,1004.77
2019-01-15T03:18:19.690Z,1004.79
2019-01-15T03:19:19.703Z,1004.79
2019-01-15T03:20:19.717Z,1004.96
2019-01-15T03:21:19.729Z,1004.86
2019-01-15T03:23:19.754Z,1004.92
2019-01-15T03:24:19.767Z,1004.85
2019-01-15T03:25:19.782Z,1004.8
2019-01-15T03:26:19.791Z,1004.85
2019-01-15T03:27:19.805Z,1004.93
2019-01-15T03:28:19.817Z,1004.87
2019-01-15T03:29:19.829Z,1004.92
2019-01-15T03:30:19.843Z,1004.93
2019-01-15T03:31:19.857Z,1004.94
2019-01-15T03:32:19.887Z,1004.91
2019-01-15T03:33:19.881Z,1004.98
2019-01-15T03:34:19.895Z,1004.9
2019-01-15T03:35:19.907Z,1004.87
2019-01-15T03:36:19.919Z,1004.82
2019-01-15T03:37:19.930Z,1004.76
2019-01-15T03:39:19.958Z,1004.78
2019-01-15T03:40:19.967Z,1004.83
2019-01-15T03:41:19.981Z,1004.76
2019-01-15T03:42:19.995Z,1004.76
2019-01-15T03:43:20.005Z,1004.8
2019-01-15T03:44:20.018Z,1004.81
2019-01-15T03:45:20.132Z,1004.82
2019-01-15T03:46:20.051Z,1004.76
2019-01-15T03:47:20.055Z,1004.85
2019-01-15T03:48:20.068Z,1004.83
2019-01-15T03:49:20.081Z,1004.74
2019-01-15T03:50:20.095Z,1004.8
2019-01-15T03:51:20.110Z,1004.8
2019-01-15T03:52:20.118Z,1004.77
2019-01-15T03:53:20.130Z,1004.91
2019-01-15T03:55:20.157Z,1004.94
2019-01-15T03:56:20.168Z,1004.85
2019-01-15T03:57:20.180Z,1004.8
2019-01-15T03:58:20.193Z,1004.86
2019-01-15T03:59:20.206Z,1004.87
2019-01-15T04:00:20.217Z,1004.81
2019-01-15T04:01:20.230Z,1004.86
2019-01-15T04:02:20.243Z,1004.9
2019-01-15T04:03:20.254Z,1004.94
2019-01-15T04:04:20.269Z,1004.93
2019-01-15T04:05:20.279Z,1004.92
2019-01-15T04:06:20.292Z,1004.94
2019-01-15T04:07:20.305Z,1004.92
2019-01-15T04:08:20.317Z,1004.96
2019-01-15T04:09:20.329Z,1004.93
2019-01-15T04:11:20.356Z,1004.99
2019-01-15T04:12:20.369Z,1004.91
2019-01-15T04:13:21.816Z,1004.95
2019-01-15T04:14:20.394Z,1004.96
2019-01-15T04:15:20.405Z,1004.95
2019-01-15T04:16:20.417Z,1005
2019-01-15T04:17:20.430Z,1005
2019-01-15T04:18:20.443Z,1005.01
2019-01-15T04:19:20.456Z,1005.04
2019-01-15T04:20:20.467Z,1005.11
2019-01-15T04:21:20.481Z,1005.05
2019-01-15T04:22:20.493Z,1005.12
2019-01-15T04:23:20.507Z,1005.13
2019-01-15T04:24:20.519Z,1005.1
2019-01-15T04:26:20.545Z,1005.15
2019-01-15T04:27:20.557Z,1005.2
2019-01-15T04:28:20.569Z,1005.14
2019-01-15T04:29:20.582Z,1005.18
2019-01-15T04:30:20.598Z,1005.15
2019-01-15T04:31:20.612Z,1005.14
2019-01-15T04:32:20.620Z,1005.16
2019-01-15T04:33:20.633Z,1005.13
2019-01-15T04:34:20.645Z,1005.12
2019-01-15T04:35:20.666Z,1005.16
2019-01-15T04:36:20.671Z,1005.07
2019-01-15T04:37:20.684Z,1005.17
2019-01-15T04:38:20.697Z,1005.21
2019-01-15T04:39:20.709Z,1005.09
2019-01-15T04:40:20.722Z,1005.01
2019-01-15T04:41:20.734Z,1005.02
2019-01-15T04:42:20.746Z,1005
2019-01-15T04:43:20.759Z,1004.96
2019-01-15T04:44:20.771Z,1004.96
2019-01-15T04:45:20.783Z,1005.02
2019-01-15T04:46:20.797Z,1004.93
2019-01-15T04:47:20.809Z,1005.03
2019-01-15T04:48:20.822Z,1004.93
2019-01-15T04:49:20.837Z,1004.84
2019-01-15T04:50:20.847Z,1004.79
2019-01-15T04:51:20.862Z,1004.8
2019-01-15T04:52:20.874Z,1004.74
2019-01-15T04:53:20.885Z,1004.8
2019-01-15T04:54:20.898Z,1004.84
2019-01-15T04:55:20.912Z,1004.81
2019-01-15T04:56:20.923Z,1005
2019-01-15T04:58:20.949Z,1004.83
2019-01-15T04:59:20.962Z,1004.91
2019-01-15T05:00:20.977Z,1004.9
2019-01-15T05:01:20.986Z,1004.92
2019-01-15T05:02:20.999Z,1004.92
2019-01-15T05:03:21.013Z,1004.89
2019-01-15T05:04:21.024Z,1004.91
2019-01-15T05:05:21.037Z,1004.82
2019-01-15T05:06:21.050Z,1004.79
2019-01-15T05:07:21.065Z,1004.9
2019-01-15T05:08:21.074Z,1004.9
2019-01-15T05:09:21.127Z,1004.87
2019-01-15T05:10:21.101Z,1004.77
2019-01-15T05:11:21.112Z,1004.86
2019-01-15T05:12:21.126Z,1004.78
2019-01-15T05:14:21.151Z,1004.69
2019-01-15T05:15:21.164Z,1004.71
2019-01-15T05:16:21.176Z,1004.75
2019-01-15T05:17:21.189Z,1004.63
2019-01-15T05:18:21.202Z,1004.71
2019-01-15T05:19:21.215Z,1004.66
2019-01-15T05:20:21.228Z,1004.76
2019-01-15T05:21:21.241Z,1004.78
2019-01-15T05:22:21.253Z,1004.77
2019-01-15T05:23:21.266Z,1004.71
2019-01-15T05:24:21.330Z,1004.67
2019-01-15T05:25:21.293Z,1004.66
2019-01-15T05:26:21.306Z,1004.76
2019-01-15T05:27:21.317Z,1004.67
2019-01-15T05:28:21.330Z,1004.77
2019-01-15T05:30:21.355Z,1004.81
2019-01-15T05:31:21.368Z,1004.75
2019-01-15T05:32:21.381Z,1004.69
2019-01-15T05:33:21.394Z,1004.7
2019-01-15T05:34:21.407Z,1004.72
2019-01-15T05:35:21.422Z,1004.61
2019-01-15T05:36:21.436Z,1004.72
2019-01-15T05:37:21.445Z,1004.75
2019-01-15T05:38:21.458Z,1004.68
2019-01-15T05:39:21.471Z,1004.78
2019-01-15T05:40:21.566Z,1004.76
2019-01-15T05:41:21.497Z,1004.77
2019-01-15T05:42:21.559Z,1004.68
2019-01-15T05:43:21.524Z,1004.74
2019-01-15T05:44:21.535Z,1004.75
2019-01-15T05:46:21.561Z,1004.87
2019-01-15T05:47:21.574Z,1004.94
2019-01-15T05:48:21.586Z,1004.84
2019-01-15T05:49:21.599Z,1004.84
2019-01-15T05:50:21.612Z,1004.79
2019-01-15T05:51:21.624Z,1004.73
2019-01-15T05:52:21.638Z,1004.8
2019-01-15T05:53:21.651Z,1004.75
2019-01-15T05:54:21.664Z,1004.81
2019-01-15T05:55:21.680Z,1004.74
2019-01-15T05:56:21.690Z,1004.79
2019-01-15T05:57:21.702Z,1004.68
2019-01-15T05:58:21.716Z,1004.64
2019-01-15T05:59:21.730Z,1004.71
2019-01-15T06:01:21.759Z,1004.7
2019-01-15T06:02:21.768Z,1004.68
2019-01-15T06:03:21.781Z,1004.65
2019-01-15T06:04:21.845Z,1004.72
2019-01-15T06:05:21.807Z,1004.74
2019-01-15T06:06:21.820Z,1004.79
2019-01-15T06:07:21.836Z,1004.76
2019-01-15T06:08:21.847Z,1004.84
2019-01-15T06:09:21.859Z,1004.81
2019-01-15T06:10:21.872Z,1004.79
2019-01-15T06:11:21.885Z,1004.72
2019-01-15T06:12:21.899Z,1004.69
2019-01-15T06:13:21.911Z,1004.57
2019-01-15T06:14:21.924Z,1004.71
2019-01-15T06:15:21.938Z,1004.77
2019-01-15T06:16:21.951Z,1004.61
2019-01-15T06:17:21.964Z,1004.62
2019-01-15T06:18:21.976Z,1004.62
2019-01-15T06:19:21.990Z,1004.59
2019-01-15T06:20:22.002Z,1004.5
2019-01-15T06:21:22.021Z,1004.53
2019-01-15T06:22:22.029Z,1004.55
2019-01-15T06:23:22.041Z,1004.47
2019-01-15T06:24:22.055Z,1004.51
2019-01-15T06:25:22.068Z,1004.39
2019-01-15T06:26:22.081Z,1004.53
2019-01-15T06:27:22.094Z,1004.38
2019-01-15T06:28:22.106Z,1004.41
2019-01-15T06:29:22.120Z,1004.48
2019-01-15T06:30:22.133Z,1004.48
2019-01-15T06:31:22.145Z,1004.52
2019-01-15T06:33:22.173Z,1004.51
2019-01-15T06:34:22.188Z,1004.51
2019-01-15T06:35:22.198Z,1004.61
2019-01-15T06:36:22.215Z,1004.54
2019-01-15T06:37:22.225Z,1004.51
2019-01-15T06:38:22.238Z,1004.68
2019-01-15T06:39:22.250Z,1004.55
2019-01-15T06:40:22.264Z,1004.62
2019-01-15T06:41:22.277Z,1004.6
2019-01-15T06:42:22.290Z,1004.61
2019-01-15T06:43:22.303Z,1004.64
2019-01-15T06:44:22.317Z,1004.61
2019-01-15T06:45:22.329Z,1004.6
2019-01-15T06:46:22.343Z,1004.57
2019-01-15T06:47:22.356Z,1004.76
2019-01-15T06:49:22.382Z,1004.72
2019-01-15T06:50:22.395Z,1004.63
2019-01-15T06:51:22.408Z,1004.71
2019-01-15T06:52:22.472Z,1004.69
2019-01-15T06:53:22.434Z,1004.61
2019-01-15T06:54:22.447Z,1004.53
2019-01-15T06:55:22.461Z,1004.65
2019-01-15T06:56:22.475Z,1004.72
2019-01-15T06:57:22.487Z,1004.67
2019-01-15T06:58:22.500Z,1004.65
2019-01-15T06:59:22.513Z,1004.52
2019-01-15T07:00:22.578Z,1004.56
2019-01-15T07:01:22.540Z,1004.62
2019-01-15T07:02:22.553Z,1004.68
2019-01-15T07:03:22.567Z,1004.7
2019-01-15T07:05:22.594Z,1004.65
2019-01-15T07:06:22.607Z,1004.68
2019-01-15T07:07:22.620Z,1004.65
2019-01-15T07:08:22.633Z,1004.66
2019-01-15T07:09:22.647Z,1004.62
2019-01-15T07:10:22.660Z,1004.63
2019-01-15T07:11:22.673Z,1004.64
2019-01-15T07:12:22.686Z,1004.7
2019-01-15T07:13:22.702Z,1004.76
2019-01-15T07:14:22.713Z,1004.56
2019-01-15T07:15:22.726Z,1004.62
2019-01-15T07:16:22.739Z,1004.63
2019-01-15T07:17:22.853Z,1004.63
2019-01-15T07:18:22.766Z,1004.49
2019-01-15T07:19:22.779Z,1004.74
2019-01-15T07:21:22.806Z,1004.5
2019-01-15T07:22:22.820Z,1004.53
2019-01-15T07:23:22.832Z,1004.6
2019-01-15T07:24:22.846Z,1004.67
2019-01-15T07:25:22.860Z,1004.53
2019-01-15T07:26:22.872Z,1004.45
2019-01-15T07:27:22.885Z,1004.49
2019-01-15T07:28:22.899Z,1004.55
2019-01-15T07:29:22.912Z,1004.58
2019-01-15T07:30:22.929Z,1004.55
2019-01-15T07:31:22.938Z,1004.67
2019-01-15T07:32:22.953Z,1004.61
2019-01-15T07:33:22.965Z,1004.57
2019-01-15T07:34:22.980Z,1004.46
2019-01-15T07:36:23.006Z,1004.51
2019-01-15T07:37:23.019Z,1004.46
2019-01-15T07:38:23.034Z,1004.4
2019-01-15T07:39:23.096Z,1004.54
2019-01-15T07:40:23.059Z,1004.47
2019-01-15T07:41:23.072Z,1004.57
2019-01-15T07:42:23.085Z,1004.52
2019-01-15T07:43:23.099Z,1004.52
2019-01-15T07:44:23.112Z,1004.61
2019-01-15T07:45:23.125Z,1004.63
2019-01-15T07:46:23.139Z,1004.51
2019-01-15T07:47:23.153Z,1004.54
2019-01-15T07:48:23.166Z,1004.55
2019-01-15T07:49:23.179Z,1004.48
2019-01-15T07:50:23.192Z,1004.51
2019-01-15T07:51:23.206Z,1004.44
2019-01-15T07:52:23.219Z,1004.49
2019-01-15T07:53:23.232Z,1004.3
2019-01-15T07:54:23.296Z,1004.47
2019-01-15T07:55:23.258Z,1004.46
2019-01-15T07:56:23.273Z,1004.42
2019-01-15T07:57:23.285Z,1004.36
2019-01-15T07:58:23.299Z,1004.53
2019-01-15T07:59:23.312Z,1004.44
2019-01-15T08:00:23.325Z,1004.49
2019-01-15T08:01:23.342Z,1004.51
2019-01-15T08:02:23.353Z,1004.53
2019-01-15T08:03:23.373Z,1004.41
2019-01-15T08:04:23.378Z,1004.55
2019-01-15T08:05:23.393Z,1004.54
2019-01-15T08:06:23.405Z,1004.61
2019-01-15T08:08:23.432Z,1004.64
2019-01-15T08:09:23.446Z,1004.63
2019-01-15T08:10:23.458Z,1004.66
2019-01-15T08:11:23.473Z,1004.66
2019-01-15T08:12:23.489Z,1004.85
2019-01-15T08:13:23.500Z,1004.56
2019-01-15T08:14:23.512Z,1004.64
2019-01-15T08:15:23.526Z,1004.65
2019-01-15T08:16:23.540Z,1004.63
2019-01-15T08:17:23.553Z,1004.61
2019-01-15T08:18:23.567Z,1004.64
2019-01-15T08:19:23.580Z,1004.67
2019-01-15T08:20:23.594Z,1004.65
2019-01-15T08:21:23.607Z,1004.66
2019-01-15T08:22:23.620Z,1004.71
2019-01-15T08:24:23.648Z,1004.58
2019-01-15T08:25:23.661Z,1004.7
2019-01-15T08:26:23.675Z,1004.61
2019-01-15T08:27:23.689Z,1004.62
2019-01-15T08:28:23.702Z,1004.62
2019-01-15T08:29:23.715Z,1004.58
2019-01-15T08:30:23.730Z,1004.6
2019-01-15T08:31:23.743Z,1004.54
2019-01-15T08:32:23.756Z,1004.54
2019-01-15T08:33:23.770Z,1004.49
2019-01-15T08:34:23.889Z,1004.63
2019-01-15T08:35:23.824Z,1004.53
2019-01-15T08:36:23.811Z,1004.6
2019-01-15T08:37:23.823Z,1004.54
2019-01-15T08:38:23.840Z,1004.64
2019-01-15T08:40:23.864Z,1004.56
2019-01-15T08:41:23.878Z,1004.39
2019-01-15T08:42:23.899Z,1004.31
2019-01-15T08:43:23.905Z,1004.38
2019-01-15T08:44:23.969Z,1004.48
2019-01-15T08:45:23.934Z,1004.34
2019-01-15T08:46:23.947Z,1004.49
2019-01-15T08:47:23.959Z,1004.42
2019-01-15T08:48:23.973Z,1004.51
2019-01-15T08:49:24.037Z,1004.5
2019-01-15T08:50:23.999Z,1004.6
2019-01-15T08:51:24.014Z,1004.41
2019-01-15T08:52:24.028Z,1004.43
2019-01-15T08:53:24.047Z,1004.46
2019-01-15T08:54:24.055Z,1004.46
2019-01-15T08:56:24.082Z,1004.51
2019-01-15T08:57:24.096Z,1004.42
2019-01-15T08:58:24.112Z,1004.46
2019-01-15T08:59:24.124Z,1004.45
2019-01-15T09:00:24.137Z,1004.51
2019-01-15T09:01:24.151Z,1004.41
2019-01-15T09:02:24.213Z,1004.49
2019-01-15T09:03:24.177Z,1004.44
2019-01-15T09:04:24.191Z,1004.57
2019-01-15T09:05:24.203Z,1004.42
2019-01-15T09:06:24.218Z,1004.5
2019-01-15T09:07:24.281Z,1004.36
2019-01-15T09:08:24.245Z,1004.43
2019-01-15T09:09:24.308Z,1004.44
2019-01-15T09:11:24.286Z,1004.42
2019-01-15T09:12:24.299Z,1004.48
2019-01-15T09:13:24.312Z,1004.42
2019-01-15T09:14:26.822Z,1004.52
2019-01-15T09:15:24.340Z,1004.52
2019-01-15T09:16:24.353Z,1004.42
2019-01-15T09:17:24.366Z,1004.43
2019-01-15T09:18:24.381Z,1004.49
2019-01-15T09:19:24.394Z,1004.49
2019-01-15T09:20:24.409Z,1004.55
2019-01-15T09:21:24.421Z,1004.58
2019-01-15T09:22:24.437Z,1004.67
2019-01-15T09:23:24.448Z,1004.58
2019-01-15T09:24:24.461Z,1004.63
2019-01-15T09:25:24.478Z,1004.65
2019-01-15T09:26:24.488Z,1004.63
2019-01-15T09:27:24.501Z,1004.73
2019-01-15T09:28:24.516Z,1004.57
2019-01-15T09:29:24.530Z,1004.61
2019-01-15T09:30:24.542Z,1004.57
2019-01-15T09:31:24.556Z,1004.69
2019-01-15T09:32:24.570Z,1004.75
2019-01-15T09:33:24.583Z,1004.66
2019-01-15T09:34:24.596Z,1004.6
2019-01-15T09:35:24.610Z,1004.66
2019-01-15T09:36:24.624Z,1004.71
2019-01-15T09:37:24.638Z,1004.68
2019-01-15T09:38:24.651Z,1004.65
2019-01-15T09:39:24.665Z,1004.71
2019-01-15T09:40:24.679Z,1004.74
2019-01-15T09:41:24.692Z,1004.69
2019-01-15T09:43:24.769Z,1004.63
2019-01-15T09:44:24.733Z,1004.73
2019-01-15T09:45:24.746Z,1004.61
2019-01-15T09:46:24.860Z,1004.62
2019-01-15T09:47:24.774Z,1004.67
2019-01-15T09:48:24.818Z,1004.63
2019-01-15T09:49:24.800Z,1004.62
2019-01-15T09:50:24.817Z,1004.65
2019-01-15T09:51:24.829Z,1004.6
2019-01-15T09:52:24.841Z,1004.62
2019-01-15T09:53:24.856Z,1004.75
2019-01-15T09:54:24.870Z,1004.57
2019-01-15T09:55:24.887Z,1004.59
2019-01-15T09:56:24.946Z,1004.65
2019-01-15T09:57:24.910Z,1004.65
2019-01-15T09:59:24.938Z,1004.61
2019-01-15T10:00:24.951Z,1004.58
2019-01-15T10:01:24.966Z,1004.57
2019-01-15T10:02:24.980Z,1004.57
2019-01-15T10:03:24.994Z,1004.58
2019-01-15T10:04:25.008Z,1004.7
2019-01-15T10:05:25.021Z,1004.63
2019-01-15T10:06:25.036Z,1004.61
2019-01-15T10:07:25.048Z,1004.62
2019-01-15T10:08:25.063Z,1004.6
2019-01-15T10:09:25.077Z,1004.64
2019-01-15T10:10:25.090Z,1004.72
2019-01-15T10:11:25.103Z,1004.68
2019-01-15T10:12:25.117Z,1004.7
2019-01-15T10:13:25.131Z,1004.62
2019-01-15T10:15:25.159Z,1004.62
2019-01-15T10:16:25.173Z,1004.62
2019-01-15T10:17:25.187Z,1004.62
2019-01-15T10:18:25.200Z,1004.59
2019-01-15T10:19:25.214Z,1004.64
2019-01-15T10:20:25.228Z,1004.56
2019-01-15T10:21:25.292Z,1004.57
2019-01-15T10:22:25.257Z,1004.52
2019-01-15T10:23:25.270Z,1004.56
2019-01-15T10:24:25.284Z,1004.57
2019-01-15T10:25:25.298Z,1004.55
2019-01-15T10:26:25.313Z,1004.61
2019-01-15T10:27:25.326Z,1004.57
2019-01-15T10:28:25.340Z,1004.53
2019-01-15T10:29:25.353Z,1004.51
2019-01-15T10:31:25.382Z,1004.52
2019-01-15T10:32:25.396Z,1004.42
2019-01-15T10:33:25.409Z,1004.51
2019-01-15T10:34:25.424Z,1004.53
2019-01-15T10:35:25.438Z,1004.55
2019-01-15T10:36:25.451Z,1004.42
2019-01-15T10:37:25.467Z,1004.52
2019-01-15T10:38:25.481Z,1004.47
2019-01-15T10:39:25.494Z,1004.53
2019-01-15T10:40:25.509Z,1004.47
2019-01-15T10:41:25.522Z,1004.51
2019-01-15T10:42:25.536Z,1004.47
2019-01-15T10:43:25.550Z,1004.42
2019-01-15T10:44:25.565Z,1004.48
2019-01-15T10:46:25.594Z,1004.44
2019-01-15T10:47:25.612Z,1004.33
2019-01-15T10:48:25.622Z,1004.38
2019-01-15T10:49:25.636Z,1004.34
2019-01-15T10:50:25.651Z,1004.37
2019-01-15T10:51:25.663Z,1004.42
2019-01-15T10:52:26.785Z,1004.43
2019-01-15T10:53:25.692Z,1004.39
2019-01-15T10:54:25.706Z,1004.38
2019-01-15T10:55:25.722Z,1004.32
2019-01-15T10:56:25.736Z,1004.41
2019-01-15T10:57:25.750Z,1004.28
2019-01-15T10:58:25.764Z,1004.3
2019-01-15T10:59:25.778Z,1004.32
2019-01-15T11:00:25.792Z,1004.31
2019-01-15T11:01:25.809Z,1004.33
2019-01-15T11:02:25.821Z,1004.32
2019-01-15T11:03:25.835Z,1004.34
2019-01-15T11:04:25.850Z,1004.31
2019-01-15T11:05:25.864Z,1004.4
2019-01-15T11:06:25.879Z,1004.34
2019-01-15T11:07:25.893Z,1004.38
2019-01-15T11:08:25.908Z,1004.32
2019-01-15T11:09:25.923Z,1004.35
2019-01-15T11:10:25.987Z,1004.37
2019-01-15T11:11:25.951Z,1004.37
2019-01-15T11:12:25.966Z,1004.38
2019-01-15T11:13:25.980Z,1004.3
2019-01-15T11:14:25.996Z,1004.38
2019-01-15T11:15:26.009Z,1004.32
2019-01-15T11:16:26.023Z,1004.37
2019-01-15T11:18:26.053Z,1004.27
2019-01-15T11:19:26.067Z,1004.31
2019-01-15T11:20:26.081Z,1004.39
2019-01-15T11:21:26.096Z,1004.4
2019-01-15T11:22:26.114Z,1004.32
2019-01-15T11:23:26.125Z,1004.37
2019-01-15T11:24:26.139Z,1004.35
2019-01-15T11:25:26.154Z,1004.19
2019-01-15T11:26:26.169Z,1004.27
2019-01-15T11:27:26.183Z,1004.23
2019-01-15T11:28:26.197Z,1004.21
2019-01-15T11:29:26.213Z,1004.21
2019-01-15T11:30:26.227Z,1004.21
2019-01-15T11:31:26.241Z,1004.26
2019-01-15T11:32:26.256Z,1004.16
2019-01-15T11:34:26.286Z,1004.2
2019-01-15T11:35:26.300Z,1004.2
2019-01-15T11:36:26.314Z,1004.12
2019-01-15T11:37:26.330Z,1004.06
2019-01-15T11:38:26.343Z,1004.11
2019-01-15T11:39:26.360Z,1004.12
2019-01-15T11:40:26.374Z,1004.04
2019-01-15T11:41:26.388Z,1004.16
2019-01-15T11:42:26.401Z,1004.03
2019-01-15T11:43:26.416Z,1004.09
2019-01-15T11:44:26.431Z,1004.05
2019-01-15T11:45:26.446Z,1004.13
2019-01-15T11:46:26.460Z,1004.11
2019-01-15T11:47:26.474Z,1004.09
2019-01-15T11:48:26.489Z,1003.98
2019-01-15T11:50:26.519Z,1003.88
2019-01-15T11:51:26.533Z,1003.97
2019-01-15T11:52:26.551Z,1004.01
2019-01-15T11:53:26.561Z,1004.01
2019-01-15T11:54:26.583Z,1004.01
2019-01-15T11:55:26.591Z,1003.96
2019-01-15T11:56:26.608Z,1003.96
2019-01-15T11:57:26.619Z,1003.93
2019-01-15T11:58:26.634Z,1003.96
2019-01-15T11:59:26.649Z,1003.94
2019-01-15T12:00:26.665Z,1003.87
2019-01-15T12:01:26.677Z,1003.91
2019-01-15T12:02:26.692Z,1003.85
2019-01-15T12:03:26.806Z,1003.82
2019-01-15T12:04:26.720Z,1003.89
2019-01-15T12:06:26.749Z,1003.84
2019-01-15T12:07:26.764Z,1003.87
2019-01-15T12:08:26.779Z,1003.88
2019-01-15T12:09:26.792Z,1003.91
2019-01-15T12:10:26.807Z,1003.89
2019-01-15T12:11:26.820Z,1003.83
2019-01-15T12:12:26.835Z,1003.91
2019-01-15T12:13:26.850Z,1003.91
2019-01-15T12:14:26.868Z,1003.88
2019-01-15T12:15:26.878Z,1003.91
2019-01-15T12:16:26.892Z,1003.8
2019-01-15T12:17:26.906Z,1003.8
2019-01-15T12:18:26.922Z,1003.86
2019-01-15T12:19:26.986Z,1003.84
2019-01-15T12:21:26.966Z,1003.89
2019-01-15T12:22:26.979Z,1003.74
2019-01-15T12:23:26.994Z,1003.79
2019-01-15T12:24:27.009Z,1003.74
2019-01-15T12:25:27.025Z,1003.68
2019-01-15T12:26:27.037Z,1003.76
2019-01-15T12:27:27.052Z,1003.74
2019-01-15T12:28:27.067Z,1003.64
2019-01-15T12:29:27.081Z,1003.58
2019-01-15T12:30:27.095Z,1003.58
2019-01-15T12:31:27.110Z,1003.6
2019-01-15T12:32:27.124Z,1003.59
2019-01-15T12:33:27.138Z,1003.6
2019-01-15T12:34:27.153Z,1003.57
2019-01-15T12:35:27.168Z,1003.64
2019-01-15T12:36:27.182Z,1003.58
2019-01-15T12:37:27.196Z,1003.7
2019-01-15T12:38:27.220Z,1003.57
2019-01-15T12:39:27.227Z,1003.65
2019-01-15T12:40:27.239Z,1003.6
2019-01-15T12:41:27.254Z,1003.62
2019-01-15T12:42:27.269Z,1003.54
2019-01-15T12:43:27.283Z,1003.57
2019-01-15T12:44:27.297Z,1003.58
2019-01-15T12:45:27.515Z,1003.57
2019-01-15T12:46:27.326Z,1003.6
2019-01-15T12:47:27.342Z,1003.61
2019-01-15T12:48:27.355Z,1003.54